sensor_id;sensor_type;location;lat;lon;timestamp;P1;durP1;ratioP1;P2;durP2;ratioP2
11125;SDS011;5617;54.046;10.676;2022-12-07T00:00:46;6.47;;;5.67;;
11125;SDS011;5617;54.046;10.676;2022-12-07T00:02:52;6.77;;;6.07;;
11125;SDS011;5617;54.046;10.676;2022-12-07T00:04:59;8.43;;;6.53;;
11125;SDS011;5617;54.046;10.676;2022-12-07T00:07:06;9.23;;;6.73;;
11125;SDS011;5617;54.046;10.676;2022-12-07T00:09:14;8.77;;;6.33;;
11125;SDS011;5617;54.046;10.676;2022-12-07T00:11:22;8.10;;;6.27;;
11125;SDS011;5617;54.046;10.676;2022-12-07T00:13:29;8.97;;;7.23;;
11125;SDS011;5617;54.046;10.676;2022-12-07T00:15:38;8.27;;;6.40;;
11125;SDS011;5617;54.046;10.676;2022-12-07T00:17:44;9.00;;;6.93;;
11125;SDS011;5617;54.046;10.676;2022-12-07T00:19:51;9.23;;;7.67;;
11125;SDS011;5617;54.046;10.676;2022-12-07T00:21:58;10.33;;;7.87;;
11125;SDS011;5617;54.046;10.676;2022-12-07T00:24:05;11.50;;;7.73;;
11125;SDS011;5617;54.046;10.676;2022-12-07T00:26:13;11.83;;;8.17;;
11125;SDS011;5617;54.046;10.676;2022-12-07T00:28:21;13.33;;;8.60;;
11125;SDS011;5617;54.046;10.676;2022-12-07T00:30:28;12.33;;;8.87;;
11125;SDS011;5617;54.046;10.676;2022-12-07T00:32:36;11.77;;;8.90;;
11125;SDS011;5617;54.046;10.676;2022-12-07T00:34:43;9.00;;;7.23;;
11125;SDS011;5617;54.046;10.676;2022-12-07T00:36:51;12.17;;;9.37;;
11125;SDS011;5617;54.046;10.676;2022-12-07T00:39:00;11.00;;;8.77;;
11125;SDS011;5617;54.046;10.676;2022-12-07T00:41:10;11.67;;;9.00;;
11125;SDS011;5617;54.046;10.676;2022-12-07T00:43:19;13.43;;;9.03;;
11125;SDS011;5617;54.046;10.676;2022-12-07T00:45:26;13.10;;;9.20;;
11125;SDS011;5617;54.046;10.676;2022-12-07T00:47:33;13.77;;;9.20;;
11125;SDS011;5617;54.046;10.676;2022-12-07T00:49:41;12.73;;;9.23;;
11125;SDS011;5617;54.046;10.676;2022-12-07T00:51:48;13.23;;;10.07;;
11125;SDS011;5617;54.046;10.676;2022-12-07T00:53:55;11.53;;;9.27;;
11125;SDS011;5617;54.046;10.676;2022-12-07T00:56:04;14.37;;;10.37;;
11125;SDS011;5617;54.046;10.676;2022-12-07T00:58:11;16.03;;;10.70;;
11125;SDS011;5617;54.046;10.676;2022-12-07T01:00:18;13.60;;;9.90;;
11125;SDS011;5617;54.046;10.676;2022-12-07T01:02:25;12.37;;;9.60;;
11125;SDS011;5617;54.046;10.676;2022-12-07T01:04:33;14.77;;;10.10;;
11125;SDS011;5617;54.046;10.676;2022-12-07T01:06:41;14.03;;;9.80;;
11125;SDS011;5617;54.046;10.676;2022-12-07T01:08:48;12.50;;;9.30;;
11125;SDS011;5617;54.046;10.676;2022-12-07T01:10:58;15.83;;;10.10;;
11125;SDS011;5617;54.046;10.676;2022-12-07T01:13:06;13.53;;;9.43;;
11125;SDS011;5617;54.046;10.676;2022-12-07T01:15:13;13.17;;;9.33;;
11125;SDS011;5617;54.046;10.676;2022-12-07T01:17:20;14.27;;;8.43;;
11125;SDS011;5617;54.046;10.676;2022-12-07T01:19:27;15.67;;;9.40;;
11125;SDS011;5617;54.046;10.676;2022-12-07T01:21:34;11.10;;;8.27;;
11125;SDS011;5617;54.046;10.676;2022-12-07T01:23:44;13.27;;;8.93;;
11125;SDS011;5617;54.046;10.676;2022-12-07T01:25:53;11.20;;;8.40;;
11125;SDS011;5617;54.046;10.676;2022-12-07T01:28:01;11.50;;;8.80;;
11125;SDS011;5617;54.046;10.676;2022-12-07T01:30:09;12.47;;;9.03;;
11125;SDS011;5617;54.046;10.676;2022-12-07T01:32:17;10.93;;;8.37;;
11125;SDS011;5617;54.046;10.676;2022-12-07T01:34:24;10.77;;;7.83;;
11125;SDS011;5617;54.046;10.676;2022-12-07T01:36:32;10.50;;;7.90;;
11125;SDS011;5617;54.046;10.676;2022-12-07T01:38:41;13.43;;;8.23;;
11125;SDS011;5617;54.046;10.676;2022-12-07T01:40:54;10.50;;;8.33;;
11125;SDS011;5617;54.046;10.676;2022-12-07T01:43:02;10.20;;;7.83;;
11125;SDS011;5617;54.046;10.676;2022-12-07T01:47:50;12.33;;;8.37;;
11125;SDS011;5617;54.046;10.676;2022-12-07T01:49:59;10.27;;;7.57;;
11125;SDS011;5617;54.046;10.676;2022-12-07T01:52:10;11.50;;;7.70;;
11125;SDS011;5617;54.046;10.676;2022-12-07T01:54:22;9.83;;;7.87;;
11125;SDS011;5617;54.046;10.676;2022-12-07T01:56:30;9.73;;;7.50;;
11125;SDS011;5617;54.046;10.676;2022-12-07T01:58:38;10.37;;;8.17;;
11125;SDS011;5617;54.046;10.676;2022-12-07T02:00:45;9.40;;;7.13;;
11125;SDS011;5617;54.046;10.676;2022-12-07T02:02:53;9.77;;;7.60;;
11125;SDS011;5617;54.046;10.676;2022-12-07T02:05:04;10.80;;;7.80;;
11125;SDS011;5617;54.046;10.676;2022-12-07T02:07:12;9.73;;;7.70;;
11125;SDS011;5617;54.046;10.676;2022-12-07T02:09:20;11.13;;;7.33;;
11125;SDS011;5617;54.046;10.676;2022-12-07T02:11:27;8.07;;;5.93;;
11125;SDS011;5617;54.046;10.676;2022-12-07T02:13:35;10.67;;;8.00;;
11125;SDS011;5617;54.046;10.676;2022-12-07T02:15:47;10.10;;;7.50;;
11125;SDS011;5617;54.046;10.676;2022-12-07T02:18:07;11.57;;;9.30;;
11125;SDS011;5617;54.046;10.676;2022-12-07T02:20:22;10.40;;;8.20;;
11125;SDS011;5617;54.046;10.676;2022-12-07T02:22:44;11.33;;;8.37;;
11125;SDS011;5617;54.046;10.676;2022-12-07T02:25:07;12.03;;;8.50;;
11125;SDS011;5617;54.046;10.676;2022-12-07T02:27:28;12.63;;;8.80;;
11125;SDS011;5617;54.046;10.676;2022-12-07T02:29:45;13.90;;;8.90;;
11125;SDS011;5617;54.046;10.676;2022-12-07T02:31:59;11.97;;;8.93;;
11125;SDS011;5617;54.046;10.676;2022-12-07T02:34:14;15.60;;;9.07;;
11125;SDS011;5617;54.046;10.676;2022-12-07T02:36:28;10.37;;;7.37;;
11125;SDS011;5617;54.046;10.676;2022-12-07T02:38:43;10.70;;;7.77;;
11125;SDS011;5617;54.046;10.676;2022-12-07T02:40:55;9.20;;;7.07;;
11125;SDS011;5617;54.046;10.676;2022-12-07T02:43:09;11.03;;;7.50;;
11125;SDS011;5617;54.046;10.676;2022-12-07T02:45:24;8.80;;;6.73;;
11125;SDS011;5617;54.046;10.676;2022-12-07T02:47:34;8.23;;;6.43;;
11125;SDS011;5617;54.046;10.676;2022-12-07T02:49:43;9.60;;;7.07;;
11125;SDS011;5617;54.046;10.676;2022-12-07T02:51:52;9.90;;;6.83;;
11125;SDS011;5617;54.046;10.676;2022-12-07T02:53:59;8.70;;;6.63;;
11125;SDS011;5617;54.046;10.676;2022-12-07T02:56:07;9.23;;;6.27;;
11125;SDS011;5617;54.046;10.676;2022-12-07T02:58:23;7.00;;;4.93;;
11125;SDS011;5617;54.046;10.676;2022-12-07T03:00:51;6.37;;;4.60;;
11125;SDS011;5617;54.046;10.676;2022-12-07T03:03:07;7.93;;;5.27;;
11125;SDS011;5617;54.046;10.676;2022-12-07T03:07:49;5.57;;;4.33;;
11125;SDS011;5617;54.046;10.676;2022-12-07T03:10:07;6.53;;;4.83;;
11125;SDS011;5617;54.046;10.676;2022-12-07T03:12:19;6.20;;;4.40;;
11125;SDS011;5617;54.046;10.676;2022-12-07T03:14:31;7.73;;;4.80;;
11125;SDS011;5617;54.046;10.676;2022-12-07T03:16:44;5.43;;;4.77;;
11125;SDS011;5617;54.046;10.676;2022-12-07T03:18:59;6.07;;;4.93;;
11125;SDS011;5617;54.046;10.676;2022-12-07T03:21:10;6.97;;;4.67;;
11125;SDS011;5617;54.046;10.676;2022-12-07T03:23:20;6.33;;;5.00;;
11125;SDS011;5617;54.046;10.676;2022-12-07T03:25:29;4.73;;;3.90;;
11125;SDS011;5617;54.046;10.676;2022-12-07T03:27:37;7.47;;;4.77;;
11125;SDS011;5617;54.046;10.676;2022-12-07T03:29:49;7.87;;;5.17;;
11125;SDS011;5617;54.046;10.676;2022-12-07T03:32:02;7.57;;;5.07;;
11125;SDS011;5617;54.046;10.676;2022-12-07T03:34:14;6.80;;;5.57;;
11125;SDS011;5617;54.046;10.676;2022-12-07T03:36:29;7.67;;;5.17;;
11125;SDS011;5617;54.046;10.676;2022-12-07T03:38:42;8.80;;;5.73;;
11125;SDS011;5617;54.046;10.676;2022-12-07T03:40:54;6.50;;;5.40;;
11125;SDS011;5617;54.046;10.676;2022-12-07T03:43:06;6.53;;;5.33;;
11125;SDS011;5617;54.046;10.676;2022-12-07T03:45:13;8.90;;;5.70;;
11125;SDS011;5617;54.046;10.676;2022-12-07T03:47:26;6.97;;;5.80;;
11125;SDS011;5617;54.046;10.676;2022-12-07T03:49:37;8.53;;;6.07;;
11125;SDS011;5617;54.046;10.676;2022-12-07T03:51:51;8.07;;;5.87;;
11125;SDS011;5617;54.046;10.676;2022-12-07T03:54:05;7.57;;;5.63;;
11125;SDS011;5617;54.046;10.676;2022-12-07T03:56:17;6.47;;;5.23;;
11125;SDS011;5617;54.046;10.676;2022-12-07T03:58:25;7.73;;;5.93;;
11125;SDS011;5617;54.046;10.676;2022-12-07T04:00:32;7.93;;;6.13;;
11125;SDS011;5617;54.046;10.676;2022-12-07T04:02:41;7.03;;;5.87;;
11125;SDS011;5617;54.046;10.676;2022-12-07T04:04:48;8.17;;;6.10;;
11125;SDS011;5617;54.046;10.676;2022-12-07T04:06:55;10.00;;;6.57;;
11125;SDS011;5617;54.046;10.676;2022-12-07T04:09:03;8.90;;;6.60;;
11125;SDS011;5617;54.046;10.676;2022-12-07T04:11:09;8.10;;;5.97;;
11125;SDS011;5617;54.046;10.676;2022-12-07T04:13:16;9.17;;;6.73;;
11125;SDS011;5617;54.046;10.676;2022-12-07T04:15:23;8.90;;;6.30;;
11125;SDS011;5617;54.046;10.676;2022-12-07T04:17:31;10.10;;;6.67;;
11125;SDS011;5617;54.046;10.676;2022-12-07T04:19:39;7.77;;;5.90;;
11125;SDS011;5617;54.046;10.676;2022-12-07T04:21:47;7.87;;;6.27;;
11125;SDS011;5617;54.046;10.676;2022-12-07T04:23:54;7.47;;;6.13;;
11125;SDS011;5617;54.046;10.676;2022-12-07T04:26:01;7.10;;;6.40;;
11125;SDS011;5617;54.046;10.676;2022-12-07T04:28:08;5.87;;;5.27;;
11125;SDS011;5617;54.046;10.676;2022-12-07T04:30:15;7.93;;;5.77;;
11125;SDS011;5617;54.046;10.676;2022-12-07T04:32:22;8.30;;;6.43;;
11125;SDS011;5617;54.046;10.676;2022-12-07T04:34:29;7.63;;;5.57;;
11125;SDS011;5617;54.046;10.676;2022-12-07T04:36:38;6.57;;;5.80;;
11125;SDS011;5617;54.046;10.676;2022-12-07T04:38:45;8.10;;;6.07;;
11125;SDS011;5617;54.046;10.676;2022-12-07T04:40:52;7.03;;;6.17;;
11125;SDS011;5617;54.046;10.676;2022-12-07T04:42:59;7.00;;;5.77;;
11125;SDS011;5617;54.046;10.676;2022-12-07T04:45:06;7.40;;;5.93;;
11125;SDS011;5617;54.046;10.676;2022-12-07T04:47:14;7.10;;;5.83;;
11125;SDS011;5617;54.046;10.676;2022-12-07T04:49:21;8.27;;;6.03;;
11125;SDS011;5617;54.046;10.676;2022-12-07T04:51:28;8.10;;;6.10;;
11125;SDS011;5617;54.046;10.676;2022-12-07T04:53:37;7.80;;;6.20;;
11125;SDS011;5617;54.046;10.676;2022-12-07T04:55:43;7.20;;;5.83;;
11125;SDS011;5617;54.046;10.676;2022-12-07T04:57:50;7.27;;;5.67;;
11125;SDS011;5617;54.046;10.676;2022-12-07T04:59:57;8.93;;;5.87;;
11125;SDS011;5617;54.046;10.676;2022-12-07T05:02:04;6.37;;;5.30;;
11125;SDS011;5617;54.046;10.676;2022-12-07T05:04:11;7.77;;;5.97;;
11125;SDS011;5617;54.046;10.676;2022-12-07T05:06:18;7.57;;;5.83;;
11125;SDS011;5617;54.046;10.676;2022-12-07T05:08:25;8.13;;;6.10;;
11125;SDS011;5617;54.046;10.676;2022-12-07T05:10:33;7.87;;;6.17;;
11125;SDS011;5617;54.046;10.676;2022-12-07T05:12:40;7.20;;;5.57;;
11125;SDS011;5617;54.046;10.676;2022-12-07T05:14:47;7.00;;;5.80;;
11125;SDS011;5617;54.046;10.676;2022-12-07T05:16:55;8.63;;;6.00;;
11125;SDS011;5617;54.046;10.676;2022-12-07T05:19:02;6.90;;;5.80;;
11125;SDS011;5617;54.046;10.676;2022-12-07T05:21:09;6.47;;;5.13;;
11125;SDS011;5617;54.046;10.676;2022-12-07T05:23:16;6.17;;;5.53;;
11125;SDS011;5617;54.046;10.676;2022-12-07T05:25:23;6.73;;;6.03;;
11125;SDS011;5617;54.046;10.676;2022-12-07T05:27:31;6.87;;;5.67;;
11125;SDS011;5617;54.046;10.676;2022-12-07T05:29:37;6.77;;;5.67;;
11125;SDS011;5617;54.046;10.676;2022-12-07T05:31:45;7.27;;;5.67;;
11125;SDS011;5617;54.046;10.676;2022-12-07T05:33:52;7.50;;;5.77;;
11125;SDS011;5617;54.046;10.676;2022-12-07T05:35:59;6.87;;;5.67;;
11125;SDS011;5617;54.046;10.676;2022-12-07T05:38:11;7.83;;;5.93;;
11125;SDS011;5617;54.046;10.676;2022-12-07T05:40:18;6.10;;;5.50;;
11125;SDS011;5617;54.046;10.676;2022-12-07T05:42:25;7.13;;;5.97;;
11125;SDS011;5617;54.046;10.676;2022-12-07T05:44:33;6.53;;;5.80;;
11125;SDS011;5617;54.046;10.676;2022-12-07T05:46:39;5.50;;;4.87;;
11125;SDS011;5617;54.046;10.676;2022-12-07T05:48:47;5.67;;;4.73;;
11125;SDS011;5617;54.046;10.676;2022-12-07T05:50:54;6.53;;;5.33;;
11125;SDS011;5617;54.046;10.676;2022-12-07T05:53:01;5.80;;;5.17;;
11125;SDS011;5617;54.046;10.676;2022-12-07T05:55:08;5.37;;;4.87;;
11125;SDS011;5617;54.046;10.676;2022-12-07T05:57:15;4.93;;;4.30;;
11125;SDS011;5617;54.046;10.676;2022-12-07T05:59:22;5.30;;;4.67;;
11125;SDS011;5617;54.046;10.676;2022-12-07T06:01:29;5.97;;;4.80;;
11125;SDS011;5617;54.046;10.676;2022-12-07T06:03:36;6.93;;;4.77;;
11125;SDS011;5617;54.046;10.676;2022-12-07T06:05:43;6.70;;;5.23;;
11125;SDS011;5617;54.046;10.676;2022-12-07T06:07:50;6.50;;;5.07;;
11125;SDS011;5617;54.046;10.676;2022-12-07T06:09:56;6.13;;;4.80;;
11125;SDS011;5617;54.046;10.676;2022-12-07T06:12:04;7.13;;;5.80;;
11125;SDS011;5617;54.046;10.676;2022-12-07T06:14:29;7.20;;;5.67;;
11125;SDS011;5617;54.046;10.676;2022-12-07T06:16:38;5.87;;;5.27;;
11125;SDS011;5617;54.046;10.676;2022-12-07T06:18:44;5.87;;;5.17;;
11125;SDS011;5617;54.046;10.676;2022-12-07T06:20:52;7.50;;;5.70;;
11125;SDS011;5617;54.046;10.676;2022-12-07T06:22:58;8.00;;;6.50;;
11125;SDS011;5617;54.046;10.676;2022-12-07T06:25:06;8.20;;;5.70;;
11125;SDS011;5617;54.046;10.676;2022-12-07T06:27:14;7.53;;;6.00;;
11125;SDS011;5617;54.046;10.676;2022-12-07T06:29:21;7.37;;;6.00;;
11125;SDS011;5617;54.046;10.676;2022-12-07T06:31:28;7.90;;;5.83;;
11125;SDS011;5617;54.046;10.676;2022-12-07T06:33:37;9.50;;;6.40;;
11125;SDS011;5617;54.046;10.676;2022-12-07T06:35:44;9.07;;;6.83;;
11125;SDS011;5617;54.046;10.676;2022-12-07T06:37:50;7.77;;;6.67;;
11125;SDS011;5617;54.046;10.676;2022-12-07T06:39:57;6.33;;;5.33;;
11125;SDS011;5617;54.046;10.676;2022-12-07T06:42:04;9.13;;;5.90;;
11125;SDS011;5617;54.046;10.676;2022-12-07T06:44:11;8.03;;;6.23;;
11125;SDS011;5617;54.046;10.676;2022-12-07T06:46:18;7.53;;;5.13;;
11125;SDS011;5617;54.046;10.676;2022-12-07T06:48:26;7.23;;;5.43;;
11125;SDS011;5617;54.046;10.676;2022-12-07T06:50:34;9.77;;;7.83;;
11125;SDS011;5617;54.046;10.676;2022-12-07T06:52:41;6.23;;;5.43;;
11125;SDS011;5617;54.046;10.676;2022-12-07T06:54:48;7.73;;;5.73;;
11125;SDS011;5617;54.046;10.676;2022-12-07T06:56:55;7.87;;;6.00;;
11125;SDS011;5617;54.046;10.676;2022-12-07T06:59:03;8.07;;;6.00;;
11125;SDS011;5617;54.046;10.676;2022-12-07T07:01:13;6.17;;;4.67;;
11125;SDS011;5617;54.046;10.676;2022-12-07T07:03:20;7.27;;;5.87;;
11125;SDS011;5617;54.046;10.676;2022-12-07T07:05:28;8.40;;;5.47;;
11125;SDS011;5617;54.046;10.676;2022-12-07T07:07:37;8.03;;;5.63;;
11125;SDS011;5617;54.046;10.676;2022-12-07T07:09:44;7.03;;;4.87;;
11125;SDS011;5617;54.046;10.676;2022-12-07T07:11:51;8.27;;;6.30;;
11125;SDS011;5617;54.046;10.676;2022-12-07T07:13:58;8.20;;;5.40;;
11125;SDS011;5617;54.046;10.676;2022-12-07T07:16:07;8.07;;;6.23;;
11125;SDS011;5617;54.046;10.676;2022-12-07T07:18:15;10.67;;;6.83;;
11125;SDS011;5617;54.046;10.676;2022-12-07T07:20:22;7.23;;;5.33;;
11125;SDS011;5617;54.046;10.676;2022-12-07T07:22:29;6.93;;;5.47;;
11125;SDS011;5617;54.046;10.676;2022-12-07T07:24:37;7.77;;;5.37;;
11125;SDS011;5617;54.046;10.676;2022-12-07T07:26:44;8.13;;;5.70;;
11125;SDS011;5617;54.046;10.676;2022-12-07T07:28:51;7.00;;;5.30;;
11125;SDS011;5617;54.046;10.676;2022-12-07T07:30:58;7.63;;;5.37;;
11125;SDS011;5617;54.046;10.676;2022-12-07T07:33:05;8.77;;;5.67;;
11125;SDS011;5617;54.046;10.676;2022-12-07T07:35:12;8.70;;;5.67;;
11125;SDS011;5617;54.046;10.676;2022-12-07T07:37:19;9.20;;;5.27;;
11125;SDS011;5617;54.046;10.676;2022-12-07T07:39:26;8.27;;;5.67;;
11125;SDS011;5617;54.046;10.676;2022-12-07T07:41:35;9.13;;;6.57;;
11125;SDS011;5617;54.046;10.676;2022-12-07T07:43:42;13.63;;;7.43;;
11125;SDS011;5617;54.046;10.676;2022-12-07T07:45:49;9.47;;;6.57;;
11125;SDS011;5617;54.046;10.676;2022-12-07T07:47:56;11.10;;;6.93;;
11125;SDS011;5617;54.046;10.676;2022-12-07T07:50:04;10.67;;;6.73;;
11125;SDS011;5617;54.046;10.676;2022-12-07T07:52:11;9.13;;;6.07;;
11125;SDS011;5617;54.046;10.676;2022-12-07T07:54:18;8.40;;;5.77;;
11125;SDS011;5617;54.046;10.676;2022-12-07T07:56:26;7.93;;;5.70;;
11125;SDS011;5617;54.046;10.676;2022-12-07T07:58:35;9.83;;;6.30;;
11125;SDS011;5617;54.046;10.676;2022-12-07T08:00:43;9.67;;;5.47;;
11125;SDS011;5617;54.046;10.676;2022-12-07T08:02:50;10.33;;;5.83;;
11125;SDS011;5617;54.046;10.676;2022-12-07T08:04:57;9.60;;;4.90;;
11125;SDS011;5617;54.046;10.676;2022-12-07T08:07:04;9.80;;;5.50;;
11125;SDS011;5617;54.046;10.676;2022-12-07T08:09:11;8.23;;;4.40;;
11125;SDS011;5617;54.046;10.676;2022-12-07T08:11:18;7.40;;;4.57;;
11125;SDS011;5617;54.046;10.676;2022-12-07T08:13:25;6.73;;;5.37;;
11125;SDS011;5617;54.046;10.676;2022-12-07T08:15:35;9.27;;;4.97;;
11125;SDS011;5617;54.046;10.676;2022-12-07T08:17:43;4.50;;;3.50;;
11125;SDS011;5617;54.046;10.676;2022-12-07T08:19:50;8.70;;;4.80;;
11125;SDS011;5617;54.046;10.676;2022-12-07T08:21:57;7.97;;;4.40;;
11125;SDS011;5617;54.046;10.676;2022-12-07T08:24:04;7.90;;;5.17;;
11125;SDS011;5617;54.046;10.676;2022-12-07T08:26:12;7.33;;;4.57;;
11125;SDS011;5617;54.046;10.676;2022-12-07T08:28:20;6.17;;;4.53;;
11125;SDS011;5617;54.046;10.676;2022-12-07T08:30:27;6.30;;;3.70;;
11125;SDS011;5617;54.046;10.676;2022-12-07T08:32:36;6.23;;;4.00;;
11125;SDS011;5617;54.046;10.676;2022-12-07T08:34:43;5.90;;;3.67;;
11125;SDS011;5617;54.046;10.676;2022-12-07T08:36:50;5.90;;;3.67;;
11125;SDS011;5617;54.046;10.676;2022-12-07T08:38:57;8.07;;;3.40;;
11125;SDS011;5617;54.046;10.676;2022-12-07T08:41:04;7.50;;;3.90;;
11125;SDS011;5617;54.046;10.676;2022-12-07T08:43:11;7.67;;;4.07;;
11125;SDS011;5617;54.046;10.676;2022-12-07T08:45:19;5.67;;;3.40;;
11125;SDS011;5617;54.046;10.676;2022-12-07T08:47:27;7.63;;;3.80;;
11125;SDS011;5617;54.046;10.676;2022-12-07T08:49:37;5.87;;;4.00;;
11125;SDS011;5617;54.046;10.676;2022-12-07T08:51:45;8.27;;;3.47;;
11125;SDS011;5617;54.046;10.676;2022-12-07T08:53:53;6.40;;;2.73;;
11125;SDS011;5617;54.046;10.676;2022-12-07T08:56:02;6.57;;;3.67;;
11125;SDS011;5617;54.046;10.676;2022-12-07T08:58:09;5.27;;;3.70;;
11125;SDS011;5617;54.046;10.676;2022-12-07T09:00:16;5.37;;;3.20;;
11125;SDS011;5617;54.046;10.676;2022-12-07T09:02:23;5.20;;;3.50;;
11125;SDS011;5617;54.046;10.676;2022-12-07T09:04:30;4.07;;;2.77;;
11125;SDS011;5617;54.046;10.676;2022-12-07T09:06:38;5.23;;;2.60;;
11125;SDS011;5617;54.046;10.676;2022-12-07T09:08:49;4.83;;;2.73;;
11125;SDS011;5617;54.046;10.676;2022-12-07T09:10:59;7.03;;;2.80;;
11125;SDS011;5617;54.046;10.676;2022-12-07T09:13:05;6.10;;;2.57;;
11125;SDS011;5617;54.046;10.676;2022-12-07T09:15:12;4.17;;;2.37;;
11125;SDS011;5617;54.046;10.676;2022-12-07T09:17:19;3.63;;;2.50;;
11125;SDS011;5617;54.046;10.676;2022-12-07T09:19:26;6.77;;;2.80;;
11125;SDS011;5617;54.046;10.676;2022-12-07T09:21:33;7.20;;;4.13;;
11125;SDS011;5617;54.046;10.676;2022-12-07T09:23:42;2.37;;;1.77;;
11125;SDS011;5617;54.046;10.676;2022-12-07T09:25:49;8.30;;;4.10;;
11125;SDS011;5617;54.046;10.676;2022-12-07T09:27:56;4.63;;;2.50;;
11125;SDS011;5617;54.046;10.676;2022-12-07T09:30:04;5.20;;;2.20;;
11125;SDS011;5617;54.046;10.676;2022-12-07T09:32:11;6.23;;;2.63;;
11125;SDS011;5617;54.046;10.676;2022-12-07T09:34:18;4.47;;;2.27;;
11125;SDS011;5617;54.046;10.676;2022-12-07T09:36:26;2.87;;;1.90;;
11125;SDS011;5617;54.046;10.676;2022-12-07T09:38:34;4.00;;;1.33;;
11125;SDS011;5617;54.046;10.676;2022-12-07T09:40:42;3.53;;;2.03;;
11125;SDS011;5617;54.046;10.676;2022-12-07T09:42:50;3.50;;;1.90;;
11125;SDS011;5617;54.046;10.676;2022-12-07T09:44:58;3.23;;;1.70;;
11125;SDS011;5617;54.046;10.676;2022-12-07T09:47:07;3.23;;;2.07;;
11125;SDS011;5617;54.046;10.676;2022-12-07T09:49:16;3.67;;;1.53;;
11125;SDS011;5617;54.046;10.676;2022-12-07T09:51:25;4.00;;;1.20;;
11125;SDS011;5617;54.046;10.676;2022-12-07T09:53:33;4.37;;;1.70;;
11125;SDS011;5617;54.046;10.676;2022-12-07T09:55:44;3.07;;;2.00;;
11125;SDS011;5617;54.046;10.676;2022-12-07T09:57:51;6.80;;;2.20;;
11125;SDS011;5617;54.046;10.676;2022-12-07T10:00:00;4.23;;;1.90;;
11125;SDS011;5617;54.046;10.676;2022-12-07T10:02:23;3.73;;;1.80;;
11125;SDS011;5617;54.046;10.676;2022-12-07T10:04:37;4.57;;;1.80;;
11125;SDS011;5617;54.046;10.676;2022-12-07T10:06:44;4.13;;;1.67;;
11125;SDS011;5617;54.046;10.676;2022-12-07T10:08:53;2.73;;;1.50;;
11125;SDS011;5617;54.046;10.676;2022-12-07T10:11:01;3.83;;;1.57;;
11125;SDS011;5617;54.046;10.676;2022-12-07T10:13:10;4.53;;;1.50;;
11125;SDS011;5617;54.046;10.676;2022-12-07T10:15:17;1.60;;;1.03;;
11125;SDS011;5617;54.046;10.676;2022-12-07T10:17:27;4.57;;;1.73;;
11125;SDS011;5617;54.046;10.676;2022-12-07T10:19:37;2.27;;;1.33;;
11125;SDS011;5617;54.046;10.676;2022-12-07T10:21:47;2.97;;;1.40;;
11125;SDS011;5617;54.046;10.676;2022-12-07T10:24:14;3.43;;;1.50;;
11125;SDS011;5617;54.046;10.676;2022-12-07T10:26:27;3.23;;;1.57;;
11125;SDS011;5617;54.046;10.676;2022-12-07T10:28:37;5.23;;;1.20;;
11125;SDS011;5617;54.046;10.676;2022-12-07T10:30:48;2.47;;;1.53;;
11125;SDS011;5617;54.046;10.676;2022-12-07T10:32:57;2.40;;;1.20;;
11125;SDS011;5617;54.046;10.676;2022-12-07T10:35:18;7.50;;;1.23;;
11125;SDS011;5617;54.046;10.676;2022-12-07T10:37:28;4.73;;;1.10;;
11125;SDS011;5617;54.046;10.676;2022-12-07T10:39:40;1.50;;;0.80;;
11125;SDS011;5617;54.046;10.676;2022-12-07T10:41:56;3.90;;;0.80;;
11125;SDS011;5617;54.046;10.676;2022-12-07T10:44:04;4.67;;;1.10;;
11125;SDS011;5617;54.046;10.676;2022-12-07T10:46:35;3.13;;;0.90;;
11125;SDS011;5617;54.046;10.676;2022-12-07T10:48:54;0.87;;;0.70;;
11125;SDS011;5617;54.046;10.676;2022-12-07T10:51:09;1.37;;;0.50;;
11125;SDS011;5617;54.046;10.676;2022-12-07T10:53:28;2.17;;;0.60;;
11125;SDS011;5617;54.046;10.676;2022-12-07T10:56:03;3.40;;;0.73;;
11125;SDS011;5617;54.046;10.676;2022-12-07T11:01:03;3.53;;;1.27;;
11125;SDS011;5617;54.046;10.676;2022-12-07T11:03:35;1.83;;;0.73;;
11125;SDS011;5617;54.046;10.676;2022-12-07T11:05:51;1.87;;;0.60;;
11125;SDS011;5617;54.046;10.676;2022-12-07T11:08:09;3.57;;;0.80;;
11125;SDS011;5617;54.046;10.676;2022-12-07T11:10:26;2.70;;;0.67;;
11125;SDS011;5617;54.046;10.676;2022-12-07T11:12:52;6.67;;;0.70;;
11125;SDS011;5617;54.046;10.676;2022-12-07T11:15:19;3.53;;;0.70;;
11125;SDS011;5617;54.046;10.676;2022-12-07T11:17:32;2.20;;;0.60;;
11125;SDS011;5617;54.046;10.676;2022-12-07T11:19:50;5.10;;;0.80;;
11125;SDS011;5617;54.046;10.676;2022-12-07T11:22:09;2.00;;;0.70;;
11125;SDS011;5617;54.046;10.676;2022-12-07T11:24:24;2.90;;;0.80;;
11125;SDS011;5617;54.046;10.676;2022-12-07T11:26:47;1.00;;;0.60;;
11125;SDS011;5617;54.046;10.676;2022-12-07T11:29:12;2.50;;;0.90;;
11125;SDS011;5617;54.046;10.676;2022-12-07T11:31:45;4.83;;;1.00;;
11125;SDS011;5617;54.046;10.676;2022-12-07T11:34:03;1.10;;;0.77;;
11125;SDS011;5617;54.046;10.676;2022-12-07T11:36:30;1.60;;;0.87;;
11125;SDS011;5617;54.046;10.676;2022-12-07T11:38:43;1.27;;;0.70;;
11125;SDS011;5617;54.046;10.676;2022-12-07T11:40:55;2.37;;;0.73;;
11125;SDS011;5617;54.046;10.676;2022-12-07T11:43:20;1.70;;;0.53;;
11125;SDS011;5617;54.046;10.676;2022-12-07T11:45:30;2.80;;;0.60;;
11125;SDS011;5617;54.046;10.676;2022-12-07T11:47:43;1.30;;;0.60;;
11125;SDS011;5617;54.046;10.676;2022-12-07T11:49:53;1.67;;;0.60;;
11125;SDS011;5617;54.046;10.676;2022-12-07T11:52:04;2.17;;;0.57;;
11125;SDS011;5617;54.046;10.676;2022-12-07T11:54:18;2.23;;;0.70;;
11125;SDS011;5617;54.046;10.676;2022-12-07T11:56:28;2.13;;;0.40;;
11125;SDS011;5617;54.046;10.676;2022-12-07T11:58:44;2.87;;;0.80;;
11125;SDS011;5617;54.046;10.676;2022-12-07T12:00:55;3.13;;;0.67;;
11125;SDS011;5617;54.046;10.676;2022-12-07T12:03:17;3.67;;;0.93;;
11125;SDS011;5617;54.046;10.676;2022-12-07T12:05:35;1.50;;;1.33;;
11125;SDS011;5617;54.046;10.676;2022-12-07T12:07:42;3.07;;;1.20;;
11125;SDS011;5617;54.046;10.676;2022-12-07T12:09:51;0.83;;;0.77;;
11125;SDS011;5617;54.046;10.676;2022-12-07T12:12:07;3.33;;;1.20;;
11125;SDS011;5617;54.046;10.676;2022-12-07T12:14:29;2.43;;;0.70;;
11125;SDS011;5617;54.046;10.676;2022-12-07T12:16:51;1.00;;;0.70;;
11125;SDS011;5617;54.046;10.676;2022-12-07T12:19:24;0.53;;;0.50;;
11125;SDS011;5617;54.046;10.676;2022-12-07T12:21:39;2.20;;;0.70;;
11125;SDS011;5617;54.046;10.676;2022-12-07T12:23:49;2.27;;;0.60;;
11125;SDS011;5617;54.046;10.676;2022-12-07T12:26:02;1.60;;;0.77;;
11125;SDS011;5617;54.046;10.676;2022-12-07T12:28:20;0.93;;;0.40;;
11125;SDS011;5617;54.046;10.676;2022-12-07T12:30:33;1.20;;;0.40;;
11125;SDS011;5617;54.046;10.676;2022-12-07T12:32:42;1.90;;;0.50;;
11125;SDS011;5617;54.046;10.676;2022-12-07T12:35:02;0.53;;;0.40;;
11125;SDS011;5617;54.046;10.676;2022-12-07T12:40:23;0.80;;;0.43;;
11125;SDS011;5617;54.046;10.676;2022-12-07T12:42:47;1.17;;;0.63;;
11125;SDS011;5617;54.046;10.676;2022-12-07T12:45:03;1.37;;;0.60;;
11125;SDS011;5617;54.046;10.676;2022-12-07T12:47:40;3.23;;;0.60;;
11125;SDS011;5617;54.046;10.676;2022-12-07T12:52:45;1.13;;;0.50;;
11125;SDS011;5617;54.046;10.676;2022-12-07T12:55:12;3.10;;;0.80;;
11125;SDS011;5617;54.046;10.676;2022-12-07T12:57:26;2.63;;;0.77;;
11125;SDS011;5617;54.046;10.676;2022-12-07T12:59:35;2.20;;;0.60;;
11125;SDS011;5617;54.046;10.676;2022-12-07T13:01:45;1.67;;;0.53;;
11125;SDS011;5617;54.046;10.676;2022-12-07T13:03:54;0.73;;;0.40;;
11125;SDS011;5617;54.046;10.676;2022-12-07T13:06:18;1.23;;;0.50;;
11125;SDS011;5617;54.046;10.676;2022-12-07T13:08:37;0.60;;;0.40;;
11125;SDS011;5617;54.046;10.676;2022-12-07T13:10:48;1.80;;;0.67;;
11125;SDS011;5617;54.046;10.676;2022-12-07T13:12:55;0.77;;;0.50;;
11125;SDS011;5617;54.046;10.676;2022-12-07T13:15:03;1.13;;;0.40;;
11125;SDS011;5617;54.046;10.676;2022-12-07T13:20:05;1.67;;;0.60;;